createdAt,value
2022-12-03T00:01:59.111Z,103051.75
2022-12-03T00:04:25.752Z,103048.26
2022-12-03T00:06:52.487Z,103047.91
2022-12-03T00:09:19.309Z,103046.43
2022-12-03T00:11:45.996Z,103048.71
2022-12-03T00:14:12.609Z,103043.34
2022-12-03T00:16:39.254Z,103046.14
2022-12-03T00:19:07.094Z,103041.67
2022-12-03T00:21:34.024Z,103040.70
2022-12-03T00:24:00.659Z,103036.44
2022-12-03T00:26:27.512Z,103041.55
2022-12-03T00:28:54.474Z,103038.60
2022-12-03T00:31:22.998Z,103038.71
2022-12-03T00:33:50.730Z,103038.15
2022-12-03T00:36:17.897Z,103041.80
2022-12-03T00:38:45.177Z,103038.17
2022-12-03T00:41:12.483Z,103038.60
2022-12-03T00:43:39.186Z,103032.94
2022-12-03T00:46:05.883Z,103033.66
2022-12-03T00:48:32.723Z,103031.12
2022-12-03T00:50:59.291Z,103033.79
2022-12-03T00:53:26.694Z,103031.71
2022-12-03T00:55:53.333Z,103032.01
2022-12-03T00:58:19.925Z,103035.59
2022-12-03T01:00:46.521Z,103030.88
2022-12-03T01:03:13.113Z,103030.19
2022-12-03T01:05:39.730Z,103029.27
2022-12-03T01:08:06.432Z,103028.07
2022-12-03T01:10:33.107Z,103027.76
2022-12-03T01:12:59.787Z,103028.86
2022-12-03T01:15:26.480Z,103026.23
2022-12-03T01:17:53.882Z,103023.88
2022-12-03T01:20:20.815Z,103022.65
2022-12-03T01:22:47.435Z,103026.52
2022-12-03T01:25:14.174Z,103028.38
2022-12-03T01:27:41.078Z,103031.56
2022-12-03T01:30:08.820Z,103032.13
2022-12-03T01:32:35.547Z,103030.29
2022-12-03T01:35:02.283Z,103031.84
2022-12-03T01:37:28.991Z,103032.52
2022-12-03T01:39:55.697Z,103030.48
2022-12-03T01:42:26.329Z,103028.23
2022-12-03T01:44:57.275Z,103028.50
2022-12-03T01:47:29.021Z,103028.60
2022-12-03T01:50:14.759Z,103028.45
2022-12-03T01:52:41.868Z,103030.29
2022-12-03T01:55:15.942Z,103031.41
2022-12-03T01:57:50.833Z,103029.27
2022-12-03T02:00:23.444Z,103029.67
2022-12-03T02:02:54.450Z,103031.39
2022-12-03T02:05:25.646Z,103026.70
2022-12-03T02:07:52.806Z,103024.39
2022-12-03T02:10:26.081Z,103022.14
2022-12-03T02:13:12.882Z,103016.55
2022-12-03T02:15:40.005Z,103015.83
2022-12-03T02:18:08.298Z,103018.02
2022-12-03T02:20:45.174Z,103008.89
2022-12-03T02:23:20.992Z,103010.46
2022-12-03T02:25:47.586Z,103009.14
2022-12-03T02:28:14.353Z,103003.45
2022-12-03T02:30:41.396Z,103003.88
2022-12-03T02:33:08.083Z,102999.98
2022-12-03T02:35:36.835Z,103002.63
2022-12-03T02:38:13.276Z,103000.98
2022-12-03T02:40:41.396Z,103001.53
2022-12-03T02:43:09.144Z,102999.61
2022-12-03T02:45:41.064Z,102997.12
2022-12-03T02:48:12.494Z,102998.74
2022-12-03T02:50:41.861Z,102994.19
2022-12-03T02:53:14.699Z,102991.61
2022-12-03T02:55:41.989Z,102989.46
2022-12-03T02:58:10.169Z,102990.71
2022-12-03T03:00:37.886Z,102991.03
2022-12-03T03:03:06.384Z,102990.36
2022-12-03T03:05:34.412Z,102987.58
2022-12-03T03:08:01.581Z,102986.81
2022-12-03T03:10:29.069Z,102988.73
2022-12-03T03:12:56.080Z,102985.13
2022-12-03T03:15:23.174Z,102982.83
2022-12-03T03:17:50.092Z,102979.94
2022-12-03T03:20:17.009Z,102983.45
2022-12-03T03:22:43.628Z,102979.47
2022-12-03T03:25:14.735Z,102980.58
2022-12-03T03:27:41.721Z,102981.58
2022-12-03T03:30:09.641Z,102978.98
2022-12-03T03:32:37.815Z,102974.73
2022-12-03T03:35:05.683Z,102977.84
2022-12-03T03:37:32.380Z,102977.70
2022-12-03T03:39:59.032Z,102976.73
2022-12-03T03:42:25.712Z,102975.48
2022-12-03T03:44:52.641Z,102972.86
2022-12-03T03:47:19.515Z,102970.69
2022-12-03T03:49:47.526Z,102971.08
2022-12-03T03:52:14.197Z,102973.40
2022-12-03T03:54:41.106Z,102969.02
2022-12-03T03:57:07.857Z,102969.53
2022-12-03T03:59:34.648Z,102967.30
2022-12-03T04:02:01.240Z,102962.17
2022-12-03T04:04:33.676Z,102959.48
2022-12-03T04:07:00.279Z,102954.30
2022-12-03T04:09:26.906Z,102956.99
2022-12-03T04:12:11.938Z,102955.77
2022-12-03T04:14:38.561Z,102948.91
2022-12-03T04:17:05.121Z,102948.71
2022-12-03T04:19:31.736Z,102948.23
2022-12-03T04:22:17.311Z,102944.61
2022-12-03T04:24:43.886Z,102944.65
2022-12-03T04:27:28.912Z,102944.73
2022-12-03T04:29:55.563Z,102941.49
2022-12-03T04:32:40.788Z,102938.79
2022-12-03T04:35:27.898Z,102935.22
2022-12-03T04:37:54.540Z,102936.48
2022-12-03T04:40:39.845Z,102936.79
2022-12-03T04:43:06.415Z,102939.58
2022-12-03T04:45:33.051Z,102933.75
2022-12-03T04:47:59.704Z,102932.04
2022-12-03T04:50:26.332Z,102934.65
2022-12-03T04:52:52.926Z,102934.39
2022-12-03T04:55:19.599Z,102934.17
2022-12-03T04:57:46.192Z,102933.08
2022-12-03T05:00:13.499Z,102928.27
2022-12-03T05:02:40.433Z,102927.34
2022-12-03T05:05:07.702Z,102922.62
2022-12-03T05:07:34.416Z,102923.79
2022-12-03T05:10:01.098Z,102921.53
2022-12-03T05:12:27.688Z,102919.78
2022-12-03T05:14:54.456Z,102923.88
2022-12-03T05:17:21.192Z,102922.89
2022-12-03T05:20:06.250Z,102919.94
2022-12-03T05:22:32.831Z,102918.46
2022-12-03T05:24:59.434Z,102915.39
2022-12-03T05:27:26.040Z,102919.63
2022-12-03T05:29:52.895Z,102919.23
2022-12-03T05:32:19.501Z,102914.05
2022-12-03T05:34:46.257Z,102917.27
2022-12-03T05:37:12.996Z,102914.76
2022-12-03T05:39:39.630Z,102919.30
2022-12-03T05:42:25.129Z,102911.61
2022-12-03T05:44:51.849Z,102910.42
2022-12-03T05:47:18.720Z,102911.60
2022-12-03T05:49:45.428Z,102912.77
2022-12-03T05:52:12.196Z,102909.86
2022-12-03T05:54:38.808Z,102909.02
2022-12-03T05:57:05.495Z,102910.10
2022-12-03T05:59:32.182Z,102911.58
2022-12-03T06:01:58.923Z,102911.55
2022-12-03T06:04:25.492Z,102911.42
2022-12-03T06:06:52.256Z,102910.59
2022-12-03T06:09:18.857Z,102906.88
2022-12-03T06:11:45.422Z,102905.21
2022-12-03T06:14:12.043Z,102912.75
2022-12-03T06:16:38.655Z,102906.05
2022-12-03T06:19:05.272Z,102908.66
2022-12-03T06:21:31.830Z,102912.98
2022-12-03T06:23:59.373Z,102911.69
2022-12-03T06:26:26.171Z,102912.58
2022-12-03T06:28:52.793Z,102910.92
2022-12-03T06:31:19.386Z,102912.28
2022-12-03T06:33:45.980Z,102909.42
2022-12-03T06:36:12.567Z,102914.37
2022-12-03T06:38:39.195Z,102911.80
2022-12-03T06:41:05.734Z,102914.52
2022-12-03T06:43:32.465Z,102913.32
2022-12-03T06:45:59.223Z,102915.13
2022-12-03T06:48:25.947Z,102911.15
2022-12-03T06:50:52.515Z,102916.31
2022-12-03T06:53:19.119Z,102918.59
2022-12-03T06:55:45.795Z,102918.89
2022-12-03T06:58:12.438Z,102915.36
2022-12-03T07:00:39.076Z,102910.63
2022-12-03T07:03:05.739Z,102915.68
2022-12-03T07:05:32.307Z,102918.59
2022-12-03T07:07:59.876Z,102914.98
2022-12-03T07:10:26.562Z,102914.30
2022-12-03T07:12:53.220Z,102912.92
2022-12-03T07:15:20.090Z,102910.72
2022-12-03T07:17:46.646Z,102908.54
2022-12-03T07:20:15.748Z,102904.29
2022-12-03T07:22:42.328Z,102903.83
2022-12-03T07:25:09.180Z,102904.70
2022-12-03T07:27:35.778Z,102902.69
2022-12-03T07:30:02.607Z,102901.45
2022-12-03T07:32:29.213Z,102898.04
2022-12-03T07:34:56.010Z,102900.11
2022-12-03T07:37:23.500Z,102900.48
2022-12-03T07:39:51.972Z,102893.27
2022-12-03T07:42:18.616Z,102890.95
2022-12-03T07:44:45.215Z,102893.77
2022-12-03T07:47:11.809Z,102890.62
2022-12-03T07:49:38.461Z,102891.01
2022-12-03T07:52:06.645Z,102894.65
2022-12-03T07:54:33.583Z,102888.79
2022-12-03T07:57:01.831Z,102886.88
2022-12-03T07:59:28.966Z,102883.63
2022-12-03T08:01:55.564Z,102885.77
2022-12-03T08:04:22.241Z,102886.45
2022-12-03T08:06:49.018Z,102886.39
2022-12-03T08:09:16.433Z,102890.14
2022-12-03T08:11:47.139Z,102887.77
2022-12-03T08:14:17.345Z,102883.99
2022-12-03T08:16:45.935Z,102881.45
2022-12-03T08:19:14.805Z,102882.34
2022-12-03T08:21:42.356Z,102883.43
2022-12-03T08:24:18.411Z,102881.10
2022-12-03T08:26:46.665Z,102885.44
2022-12-03T08:29:15.969Z,102880.88
2022-12-03T08:31:48.705Z,102881.27
2022-12-03T08:34:19.643Z,102883.36
2022-12-03T08:36:50.103Z,102886.91
2022-12-03T08:39:22.796Z,102882.14
2022-12-03T08:42:14.870Z,102884.94
2022-12-03T08:44:41.516Z,102884.48
2022-12-03T08:47:08.113Z,102886.37
2022-12-03T08:49:36.282Z,102881.47
2022-12-03T08:52:12.685Z,102878.48
2022-12-03T08:54:39.380Z,102880.09
2022-12-03T08:57:24.298Z,102879.84
2022-12-03T08:59:55.785Z,102874.71
2022-12-03T09:02:30.544Z,102879.33
2022-12-03T09:04:57.430Z,102879.64
2022-12-03T09:07:24.007Z,102875.20
2022-12-03T09:09:50.702Z,102873.21
2022-12-03T09:12:17.288Z,102873.44
2022-12-03T09:14:43.934Z,102874.02
2022-12-03T09:17:10.690Z,102870.07
2022-12-03T09:19:42.721Z,102871.02
2022-12-03T09:22:12.725Z,102872.73
2022-12-03T09:24:41.656Z,102871.91
2022-12-03T09:27:08.298Z,102866.39
2022-12-03T09:29:34.890Z,102868.44
2022-12-03T09:32:01.559Z,102862.73
2022-12-03T09:34:28.725Z,102863.35
2022-12-03T09:36:55.542Z,102859.63
2022-12-03T09:39:22.198Z,102857.70
2022-12-03T09:41:49.151Z,102857.33
2022-12-03T09:44:18.225Z,102855.54
2022-12-03T09:46:45.765Z,102853.13
2022-12-03T09:49:16.285Z,102852.07
2022-12-03T09:51:44.864Z,102853.25
2022-12-03T09:54:22.225Z,102852.73
2022-12-03T09:56:49.086Z,102855.95
2022-12-03T09:59:16.617Z,102855.17
2022-12-03T10:01:43.873Z,102854.05
2022-12-03T10:04:10.988Z,102854.90
2022-12-03T10:06:42.382Z,102851.95
2022-12-03T10:09:16.648Z,102848.48
2022-12-03T10:11:43.224Z,102846.69
2022-12-03T10:14:13.957Z,102842.71
2022-12-03T10:16:41.325Z,102840.29
2022-12-03T10:19:28.576Z,102834.77
2022-12-03T10:21:55.311Z,102831.67
2022-12-03T10:24:33.589Z,102831.27
2022-12-03T10:27:19.079Z,102826.73
2022-12-03T10:29:57.501Z,102831.31
2022-12-03T10:32:40.301Z,102832.27
2022-12-03T10:35:10.813Z,102834.64
2022-12-03T10:37:55.128Z,102831.52
2022-12-03T10:40:35.975Z,102831.47
2022-12-03T10:43:14.156Z,102829.88
2022-12-03T10:45:42.190Z,102830.54
2022-12-03T10:48:20.743Z,102829.75
2022-12-03T10:51:06.395Z,102827.74
2022-12-03T10:53:35.653Z,102827.89
2022-12-03T10:56:06.965Z,102829.77
2022-12-03T10:58:36.198Z,102825.35
2022-12-03T11:01:12.726Z,102822.02
2022-12-03T11:03:39.460Z,102816.08
2022-12-03T11:06:06.411Z,102814.10
2022-12-03T11:08:35.965Z,102817.71
2022-12-03T11:11:18.369Z,102815.05
2022-12-03T11:13:53.385Z,102816.66
2022-12-03T11:16:38.703Z,102811.02
2022-12-03T11:19:42.359Z,102810.94
2022-12-03T11:22:09.497Z,102807.20
2022-12-03T11:24:38.670Z,102807.27
2022-12-03T11:27:09.343Z,102803.55
2022-12-03T11:29:45.106Z,102804.41
2022-12-03T11:32:37.699Z,102801.11
2022-12-03T11:35:10.603Z,102799.65
2022-12-03T11:37:37.631Z,102797.59
2022-12-03T11:40:16.519Z,102799.17
2022-12-03T11:42:45.364Z,102794.65
2022-12-03T11:45:21.944Z,102796.91
2022-12-03T11:47:57.265Z,102794.20
2022-12-03T11:50:37.660Z,102793.03
2022-12-03T11:53:24.361Z,102792.70
2022-12-03T11:56:05.798Z,102792.59
2022-12-03T11:58:33.794Z,102788.83
2022-12-03T12:01:03.485Z,102787.80
2022-12-03T12:03:36.084Z,102788.12
2022-12-03T12:06:08.274Z,102785.81
2022-12-03T12:08:38.283Z,102787.65
2022-12-03T12:11:24.819Z,102779.34
2022-12-03T12:14:01.660Z,102773.31
2022-12-03T12:16:51.372Z,102772.82
2022-12-03T12:19:42.397Z,102775.09
2022-12-03T12:22:14.932Z,102768.21
2022-12-03T12:24:47.355Z,102769.04
2022-12-03T12:27:23.863Z,102771.20
2022-12-03T12:30:03.394Z,102766.23
2022-12-03T12:32:33.261Z,102764.68
2022-12-03T12:35:13.828Z,102765.65
2022-12-03T12:37:50.079Z,102766.27
2022-12-03T12:40:29.351Z,102765.27
2022-12-03T12:42:59.749Z,102767.72
2022-12-03T12:45:44.439Z,102769.45
2022-12-03T12:48:25.812Z,102763.80
2022-12-03T12:51:10.659Z,102762.89
2022-12-03T12:53:39.576Z,102764.91
2022-12-03T12:56:10.789Z,102769.14
2022-12-03T12:58:37.503Z,102766.76
2022-12-03T13:01:21.262Z,102767.42
2022-12-03T13:03:50.509Z,102766.80
2022-12-03T13:06:27.314Z,102765.45
2022-12-03T13:08:54.819Z,102765.43
2022-12-03T13:11:24.451Z,102765.88
2022-12-03T13:13:51.343Z,102763.59
2022-12-03T13:16:19.686Z,102762.53
2022-12-03T13:18:54.201Z,102760.56
2022-12-03T13:21:21.519Z,102758.06
2022-12-03T13:23:52.253Z,102760.22
2022-12-03T13:26:38.376Z,102760.71
2022-12-03T13:29:17.793Z,102758.89
2022-12-03T13:31:59.656Z,102759.02
2022-12-03T13:34:31.743Z,102756.18
2022-12-03T13:37:00.865Z,102753.93
2022-12-03T13:39:30.169Z,102754.31
2022-12-03T13:42:27.368Z,102755.28
2022-12-03T13:44:54.033Z,102754.06
2022-12-03T13:47:22.758Z,102753.54
2022-12-03T13:49:56.277Z,102758.84
2022-12-03T13:52:25.297Z,102757.30
2022-12-03T13:54:54.722Z,102755.59
2022-12-03T13:57:22.400Z,102757.08
2022-12-03T13:59:49.136Z,102755.41
2022-12-03T14:02:15.808Z,102758.45
2022-12-03T14:04:42.534Z,102752.30
2022-12-03T14:07:09.208Z,102748.25
2022-12-03T14:09:35.924Z,102753.03
2022-12-03T14:12:22.401Z,102750.77
2022-12-03T14:14:49.124Z,102747.47
2022-12-03T14:17:15.783Z,102746.02
2022-12-03T14:19:42.659Z,102743.77
2022-12-03T14:22:09.569Z,102741.40
2022-12-03T14:24:37.129Z,102739.91
2022-12-03T14:27:03.735Z,102735.99
2022-12-03T14:29:30.348Z,102731.56
2022-12-03T14:31:57.037Z,102728.63
2022-12-03T14:34:24.184Z,102724.68
2022-12-03T14:36:50.738Z,102725.20
2022-12-03T14:39:17.293Z,102733.45
2022-12-03T14:42:02.606Z,102735.16
2022-12-03T14:44:29.283Z,102733.98
2022-12-03T14:46:57.477Z,102738.30
2022-12-03T14:49:25.300Z,102736.92
2022-12-03T14:51:52.069Z,102735.77
2022-12-03T14:54:18.680Z,102740.34
2022-12-03T14:56:45.286Z,102740.38
2022-12-03T14:59:11.982Z,102737.98
2022-12-03T15:01:38.725Z,102741.09
2022-12-03T15:04:05.438Z,102744.06
2022-12-03T15:06:32.151Z,102741.94
2022-12-03T15:08:58.838Z,102743.83
2022-12-03T15:11:25.472Z,102740.68
2022-12-03T15:13:52.147Z,102740.30
2022-12-03T15:16:18.833Z,102740.05
2022-12-03T15:18:45.481Z,102741.27
2022-12-03T15:21:12.121Z,102747.51
2022-12-03T15:23:38.690Z,102746.52
2022-12-03T15:26:05.540Z,102748.29
2022-12-03T15:28:32.241Z,102743.45
2022-12-03T15:30:58.978Z,102740.73
2022-12-03T15:33:25.651Z,102739.15
2022-12-03T15:35:52.364Z,102733.89
2022-12-03T15:38:19.399Z,102737.43
2022-12-03T15:40:46.147Z,102732.69
2022-12-03T15:43:12.717Z,102726.83
2022-12-03T15:45:39.780Z,102731.44
2022-12-03T15:48:06.412Z,102734.48
2022-12-03T15:50:38.499Z,102731.42
2022-12-03T15:53:06.698Z,102729.33
2022-12-03T15:55:33.278Z,102730.64
2022-12-03T15:57:59.840Z,102728.06
2022-12-03T16:00:26.517Z,102732.62
2022-12-03T16:02:53.366Z,102735.17
2022-12-03T16:05:19.992Z,102732.83
2022-12-03T16:07:46.643Z,102729.02
2022-12-03T16:10:13.479Z,102726.08
2022-12-03T16:12:40.333Z,102725.49
2022-12-03T16:15:07.619Z,102724.19
2022-12-03T16:17:34.267Z,102724.30
2022-12-03T16:20:00.896Z,102726.52
2022-12-03T16:22:27.573Z,102726.45
2022-12-03T16:24:54.124Z,102729.58
2022-12-03T16:27:25.500Z,102731.88
2022-12-03T16:29:52.889Z,102734.98
2022-12-03T16:32:19.759Z,102739.37
2022-12-03T16:34:46.403Z,102741.55
2022-12-03T16:37:13.122Z,102735.00
2022-12-03T16:39:47.301Z,102733.64
2022-12-03T16:42:17.309Z,102736.54
2022-12-03T16:45:04.471Z,102738.88
2022-12-03T16:47:34.190Z,102737.94
2022-12-03T16:50:08.044Z,102734.58
2022-12-03T16:52:35.466Z,102735.41
2022-12-03T16:55:02.499Z,102744.33
2022-12-03T16:57:33.715Z,102742.27
2022-12-03T17:00:01.108Z,102747.60
2022-12-03T17:02:28.101Z,102747.26
2022-12-03T17:04:54.893Z,102751.12
2022-12-03T17:07:21.588Z,102748.96
2022-12-03T17:09:48.633Z,102748.49
2022-12-03T17:12:15.296Z,102747.61
2022-12-03T17:14:41.891Z,102747.53
2022-12-03T17:17:08.526Z,102745.95
2022-12-03T17:19:35.193Z,102747.81
2022-12-03T17:22:01.858Z,102748.28
2022-12-03T17:24:28.435Z,102747.86
2022-12-03T17:26:55.058Z,102745.14
2022-12-03T17:29:21.832Z,102748.16
2022-12-03T17:31:48.578Z,102750.94
2022-12-03T17:34:15.268Z,102754.20
2022-12-03T17:36:41.864Z,102750.62
2022-12-03T17:39:08.457Z,102750.80
2022-12-03T17:41:35.077Z,102751.48
2022-12-03T17:44:05.969Z,102749.38
2022-12-03T17:46:35.664Z,102747.43
2022-12-03T17:49:02.457Z,102751.34
2022-12-03T17:51:29.081Z,102747.48
2022-12-03T17:53:55.654Z,102749.79
2022-12-03T17:56:22.351Z,102749.43
2022-12-03T17:58:49.020Z,102752.22
2022-12-03T18:01:15.697Z,102749.77
2022-12-03T18:03:42.518Z,102743.45
2022-12-03T18:06:09.410Z,102746.39
2022-12-03T18:08:36.062Z,102751.39
2022-12-03T18:11:02.661Z,102747.38
2022-12-03T18:13:29.316Z,102743.53
2022-12-03T18:15:56.287Z,102744.27
2022-12-03T18:18:22.960Z,102743.95
2022-12-03T18:20:51.101Z,102745.88
2022-12-03T18:23:17.832Z,102741.08
2022-12-03T18:25:44.493Z,102729.83
2022-12-03T18:28:11.105Z,102725.21
2022-12-03T18:30:37.729Z,102729.22
2022-12-03T18:33:04.339Z,102728.05
2022-12-03T18:35:31.052Z,102731.59
2022-12-03T18:37:57.917Z,102736.56
2022-12-03T18:40:26.505Z,102743.61
2022-12-03T18:42:53.177Z,102738.46
2022-12-03T18:45:19.993Z,102739.45
2022-12-03T18:47:46.781Z,102737.21
2022-12-03T18:50:13.545Z,102732.42
2022-12-03T18:52:40.271Z,102734.68
2022-12-03T18:55:08.035Z,102732.91
2022-12-03T18:57:34.755Z,102733.11
2022-12-03T19:00:10.228Z,102739.45
2022-12-03T19:03:01.851Z,102734.85
2022-12-03T19:05:26.696Z,102729.98
2022-12-03T19:07:54.950Z,102730.77
2022-12-03T19:10:21.720Z,102732.28
2022-12-03T19:12:48.516Z,102734.73
2022-12-03T19:15:15.394Z,102738.38
2022-12-03T19:17:42.095Z,102743.54
2022-12-03T19:20:10.292Z,102739.11
2022-12-03T19:22:36.946Z,102748.30
2022-12-03T19:25:04.419Z,102749.65
2022-12-03T19:27:31.668Z,102750.86
2022-12-03T19:29:58.393Z,102750.91
2022-12-03T19:32:25.023Z,102747.70
2022-12-03T19:34:51.677Z,102746.98
2022-12-03T19:37:18.344Z,102742.34
2022-12-03T19:39:45.210Z,102742.44
2022-12-03T19:42:11.882Z,102741.02
2022-12-03T19:44:38.671Z,102745.27
2022-12-03T19:47:05.305Z,102742.61
2022-12-03T19:49:32.042Z,102746.86
2022-12-03T19:51:58.653Z,102751.64
2022-12-03T19:54:25.351Z,102752.11
2022-12-03T19:56:51.978Z,102747.17
2022-12-03T19:59:18.586Z,102746.73
2022-12-03T20:01:45.304Z,102744.80
2022-12-03T20:04:12.103Z,102744.32
2022-12-03T20:06:38.882Z,102747.79
2022-12-03T20:09:11.482Z,102750.34
2022-12-03T20:11:39.710Z,102745.84
2022-12-03T20:14:08.974Z,102747.14
2022-12-03T20:16:36.487Z,102749.45
2022-12-03T20:19:06.235Z,102752.70
2022-12-03T20:21:35.849Z,102749.66
2022-12-03T20:24:03.083Z,102750.17
2022-12-03T20:26:30.058Z,102748.42
2022-12-03T20:28:57.381Z,102751.34
2022-12-03T20:31:27.252Z,102750.57
2022-12-03T20:33:56.673Z,102747.17
2022-12-03T20:36:24.703Z,102744.77
2022-12-03T20:39:00.748Z,102752.77
2022-12-03T20:41:28.504Z,102752.12
2022-12-03T20:43:55.460Z,102758.45
2022-12-03T20:46:25.754Z,102756.48
2022-12-03T20:48:55.987Z,102757.00
2022-12-03T20:51:25.858Z,102758.82
2022-12-03T20:53:53.261Z,102753.29
2022-12-03T20:56:23.421Z,102749.88
2022-12-03T20:58:50.541Z,102744.25
2022-12-03T21:01:19.395Z,102740.15
2022-12-03T21:03:46.933Z,102737.98
2022-12-03T21:06:15.057Z,102737.45
2022-12-03T21:08:43.147Z,102736.94
2022-12-03T21:11:15.384Z,102741.63
2022-12-03T21:13:43.071Z,102738.92
2022-12-03T21:16:13.112Z,102731.74
2022-12-03T21:18:40.185Z,102736.20
2022-12-03T21:21:08.195Z,102738.07
2022-12-03T21:23:35.201Z,102738.13
2022-12-03T21:26:04.042Z,102740.45
2022-12-03T21:28:30.775Z,102736.55
2022-12-03T21:31:08.841Z,102736.55
2022-12-03T21:33:36.798Z,102741.66
2022-12-03T21:36:04.845Z,102744.17
2022-12-03T21:38:32.472Z,102743.00
2022-12-03T21:40:59.807Z,102742.01
2022-12-03T21:43:27.093Z,102741.84
2022-12-03T21:45:53.855Z,102746.61
2022-12-03T21:48:21.017Z,102741.89
2022-12-03T21:51:07.469Z,102741.00
2022-12-03T21:53:40.474Z,102742.85
2022-12-03T21:56:13.245Z,102741.31
2022-12-03T21:58:40.391Z,102739.73
2022-12-03T22:01:12.108Z,102741.55
2022-12-03T22:03:39.192Z,102736.70
2022-12-03T22:06:06.078Z,102734.05
2022-12-03T22:08:32.754Z,102740.25
2022-12-03T22:11:04.272Z,102740.58
2022-12-03T22:13:30.878Z,102740.61
2022-12-03T22:15:57.507Z,102738.14
2022-12-03T22:18:24.274Z,102733.66
2022-12-03T22:20:50.846Z,102732.89
2022-12-03T22:23:17.461Z,102733.12
2022-12-03T22:25:44.032Z,102735.93
2022-12-03T22:28:10.619Z,102740.56
2022-12-03T22:30:39.506Z,102744.27
2022-12-03T22:33:06.271Z,102743.89
2022-12-03T22:35:32.827Z,102744.33
2022-12-03T22:37:59.441Z,102745.55
2022-12-03T22:40:26.045Z,102743.40
2022-12-03T22:42:52.650Z,102748.14
2022-12-03T22:45:19.266Z,102746.33
2022-12-03T22:47:45.920Z,102751.50
2022-12-03T22:50:12.558Z,102752.92
2022-12-03T22:52:39.120Z,102751.00
2022-12-03T22:55:06.417Z,102753.48
2022-12-03T22:57:32.975Z,102758.21
2022-12-03T22:59:59.604Z,102750.09
2022-12-03T23:02:26.236Z,102752.66
2022-12-03T23:04:55.188Z,102753.43
2022-12-03T23:07:21.783Z,102752.45
2022-12-03T23:09:48.402Z,102752.01
2022-12-03T23:12:15.044Z,102746.97
2022-12-03T23:14:41.620Z,102746.02
2022-12-03T23:17:08.195Z,102747.91
2022-12-03T23:19:35.346Z,102746.84
2022-12-03T23:22:01.933Z,102744.63
2022-12-03T23:24:28.671Z,102742.20
2022-12-03T23:26:56.098Z,102736.30
2022-12-03T23:29:22.676Z,102734.02
2022-12-03T23:31:49.317Z,102730.38
2022-12-03T23:34:16.081Z,102726.06
2022-12-03T23:36:42.746Z,102732.23
2022-12-03T23:39:09.594Z,102722.96
2022-12-03T23:41:36.179Z,102723.45
2022-12-03T23:44:02.756Z,102725.10
2022-12-03T23:46:29.596Z,102725.14
2022-12-03T23:48:58.172Z,102719.80
2022-12-03T23:51:25.401Z,102719.33
2022-12-03T23:53:54.208Z,102720.09
2022-12-03T23:56:24.378Z,102714.98
2022-12-03T23:58:51.376Z,102716.73
